createdAt,value
2022-12-05T00:01:15.348Z,14.60
2022-12-05T00:03:43.262Z,14.53
2022-12-05T00:06:12.671Z,15.60
2022-12-05T00:08:40.530Z,14.33
2022-12-05T00:11:12.465Z,15.00
2022-12-05T00:13:41.049Z,14.53
2022-12-05T00:16:10.482Z,16.60
2022-12-05T00:18:38.716Z,14.10
2022-12-05T00:21:07.290Z,15.47
2022-12-05T00:23:36.420Z,14.60
2022-12-05T00:26:05.219Z,14.20
2022-12-05T00:28:33.060Z,14.87
2022-12-05T00:31:03.551Z,14.37
2022-12-05T00:33:31.291Z,15.13
2022-12-05T00:36:03.068Z,15.03
2022-12-05T00:38:30.861Z,15.13
2022-12-05T00:41:03.837Z,16.67
2022-12-05T00:43:31.768Z,14.83
2022-12-05T00:46:02.390Z,15.80
2022-12-05T00:48:30.283Z,14.33
2022-12-05T00:51:02.321Z,15.67
2022-12-05T00:53:30.152Z,15.27
2022-12-05T00:56:04.626Z,15.17
2022-12-05T00:58:32.632Z,14.67
2022-12-05T01:01:07.186Z,14.57
2022-12-05T01:03:35.302Z,14.43
2022-12-05T01:06:05.897Z,15.97
2022-12-05T01:08:34.599Z,15.00
2022-12-05T01:11:04.400Z,15.10
2022-12-05T01:13:32.703Z,15.00
2022-12-05T01:16:00.473Z,15.50
2022-12-05T01:18:29.001Z,14.40
2022-12-05T01:20:56.733Z,15.07
2022-12-05T01:23:24.526Z,14.77
2022-12-05T01:25:53.356Z,14.80
2022-12-05T01:28:22.499Z,14.17
2022-12-05T01:30:51.393Z,16.00
2022-12-05T01:33:19.489Z,14.70
2022-12-05T01:35:47.244Z,15.43
2022-12-05T01:38:14.989Z,14.47
2022-12-05T01:40:43.010Z,15.17
2022-12-05T01:43:15.405Z,14.90
2022-12-05T01:45:46.488Z,14.50
2022-12-05T01:48:18.037Z,15.00
2022-12-05T01:50:46.558Z,15.30
2022-12-05T01:53:14.956Z,15.23
2022-12-05T01:55:42.789Z,14.67
2022-12-05T01:58:11.168Z,14.70
2022-12-05T02:00:42.406Z,14.17
2022-12-05T02:03:14.047Z,14.53
2022-12-05T02:05:41.963Z,14.37
2022-12-05T02:08:11.367Z,14.50
2022-12-05T02:10:41.654Z,14.30
2022-12-05T02:13:19.365Z,15.80
2022-12-05T02:15:56.999Z,13.80
2022-12-05T02:18:36.125Z,15.40
2022-12-05T02:21:18.737Z,14.83
2022-12-05T02:23:58.499Z,14.20
2022-12-05T02:26:47.258Z,14.13
2022-12-05T02:29:51.898Z,13.97
2022-12-05T02:32:27.567Z,14.10
2022-12-05T02:34:59.542Z,15.00
2022-12-05T02:37:30.420Z,15.10
2022-12-05T02:40:04.085Z,14.77
2022-12-05T02:42:34.932Z,14.67
2022-12-05T02:45:07.238Z,14.67
2022-12-05T02:47:39.006Z,13.40
2022-12-05T02:50:08.939Z,14.63
2022-12-05T02:52:36.961Z,14.63
2022-12-05T02:55:05.819Z,13.03
2022-12-05T02:57:35.464Z,14.67
2022-12-05T03:00:03.317Z,13.40
2022-12-05T03:02:32.603Z,14.73
2022-12-05T03:05:09.932Z,14.77
2022-12-05T03:07:39.346Z,13.33
2022-12-05T03:10:09.122Z,14.00
2022-12-05T03:12:39.794Z,13.97
2022-12-05T03:15:10.615Z,13.87
2022-12-05T03:17:42.775Z,13.53
2022-12-05T03:20:16.657Z,13.83
2022-12-05T03:22:48.339Z,13.97
2022-12-05T03:25:16.279Z,12.50
2022-12-05T03:27:48.414Z,14.57
2022-12-05T03:30:18.278Z,14.37
2022-12-05T03:32:50.875Z,14.03
2022-12-05T03:35:23.949Z,13.93
2022-12-05T03:37:54.856Z,14.30
2022-12-05T03:40:28.693Z,12.80
2022-12-05T03:43:02.684Z,13.53
2022-12-05T03:45:37.759Z,14.80
2022-12-05T03:48:12.689Z,13.20
2022-12-05T03:50:44.012Z,13.27
2022-12-05T03:53:20.573Z,14.27
2022-12-05T03:55:54.624Z,13.67
2022-12-05T03:58:28.491Z,13.67
2022-12-05T04:00:58.541Z,14.33
2022-12-05T04:03:39.098Z,15.20
2022-12-05T04:06:13.547Z,14.10
2022-12-05T04:08:44.357Z,13.80
2022-12-05T04:11:15.268Z,14.07
2022-12-05T04:13:47.079Z,13.27
2022-12-05T04:16:35.244Z,12.90
2022-12-05T04:19:07.076Z,14.17
2022-12-05T04:21:38.964Z,14.07
2022-12-05T04:24:27.624Z,12.63
2022-12-05T04:27:09.632Z,13.77
2022-12-05T04:29:42.203Z,13.47
2022-12-05T04:32:12.411Z,13.67
2022-12-05T04:34:41.268Z,14.27
2022-12-05T04:37:13.416Z,12.57
2022-12-05T04:39:45.947Z,13.40
2022-12-05T04:42:16.503Z,12.63
2022-12-05T04:44:47.878Z,13.23
2022-12-05T04:47:16.560Z,12.80
2022-12-05T04:49:48.028Z,13.07
2022-12-05T04:52:20.199Z,12.73
2022-12-05T04:54:50.645Z,12.60
2022-12-05T04:57:21.555Z,12.87
2022-12-05T04:59:49.652Z,12.60
2022-12-05T05:02:20.847Z,12.83
2022-12-05T05:04:50.989Z,13.43
2022-12-05T05:07:20.587Z,12.47
2022-12-05T05:09:48.362Z,13.03
2022-12-05T05:12:19.178Z,12.57
2022-12-05T05:14:47.291Z,12.57
2022-12-05T05:17:15.036Z,11.50
2022-12-05T05:19:42.805Z,13.13
2022-12-05T05:22:10.792Z,12.47
2022-12-05T05:24:39.887Z,11.53
2022-12-05T05:27:07.709Z,13.10
2022-12-05T05:29:35.517Z,12.13
2022-12-05T05:32:03.387Z,11.70
2022-12-05T05:34:31.129Z,11.63
2022-12-05T05:36:58.923Z,11.80
2022-12-05T05:39:28.287Z,10.77
2022-12-05T05:41:57.661Z,11.60
2022-12-05T05:44:25.448Z,12.10
2022-12-05T05:46:53.313Z,12.43
2022-12-05T05:49:21.139Z,11.90
2022-12-05T05:51:49.141Z,12.37
2022-12-05T05:54:16.850Z,12.13
2022-12-05T05:56:44.641Z,11.37
2022-12-05T05:59:13.839Z,11.33
2022-12-05T06:01:41.652Z,12.83
2022-12-05T06:04:31.128Z,12.40
2022-12-05T06:06:58.877Z,11.23
2022-12-05T06:09:26.647Z,11.93
2022-12-05T06:11:54.404Z,12.80
2022-12-05T06:14:23.763Z,12.50
2022-12-05T06:16:51.590Z,12.33
2022-12-05T06:19:19.394Z,12.40
2022-12-05T06:21:47.194Z,12.03
2022-12-05T06:24:15.063Z,11.07
2022-12-05T06:26:43.444Z,10.70
2022-12-05T06:29:11.203Z,12.03
2022-12-05T06:31:40.456Z,12.17
2022-12-05T06:34:08.346Z,12.30
2022-12-05T06:36:36.348Z,12.43
2022-12-05T06:39:04.923Z,11.67
2022-12-05T06:41:33.601Z,11.77
2022-12-05T06:44:02.564Z,10.83
2022-12-05T06:46:30.679Z,10.93
2022-12-05T06:49:00.366Z,11.77
2022-12-05T06:51:28.226Z,10.67
2022-12-05T06:53:56.695Z,10.30
2022-12-05T06:56:24.534Z,10.63
2022-12-05T06:58:53.457Z,10.97
2022-12-05T07:01:42.116Z,10.40
2022-12-05T07:04:16.558Z,10.87
2022-12-05T07:06:50.297Z,9.93
2022-12-05T07:09:19.428Z,10.20
2022-12-05T07:11:48.053Z,10.90
2022-12-05T07:14:39.098Z,9.50
2022-12-05T07:17:03.552Z,9.97
2022-12-05T07:19:32.818Z,10.23
2022-12-05T07:22:00.684Z,9.67
2022-12-05T07:24:28.742Z,8.57
2022-12-05T07:26:56.525Z,9.10
2022-12-05T07:29:24.304Z,9.00
2022-12-05T07:31:52.131Z,8.90
2022-12-05T07:34:19.920Z,8.87
2022-12-05T07:36:49.096Z,8.43
2022-12-05T07:39:17.003Z,8.33
2022-12-05T07:41:44.935Z,9.43
2022-12-05T07:44:17.066Z,8.70
2022-12-05T07:46:44.864Z,8.93
2022-12-05T07:49:12.697Z,8.97
2022-12-05T07:51:40.460Z,9.00
2022-12-05T07:54:09.663Z,8.37
2022-12-05T07:56:37.414Z,8.43
2022-12-05T07:59:05.244Z,7.83
2022-12-05T08:01:33.081Z,9.13
2022-12-05T08:04:01.026Z,7.57
2022-12-05T08:06:30.443Z,8.60
2022-12-05T08:08:58.729Z,8.27
2022-12-05T08:11:30.100Z,8.60
2022-12-05T08:13:59.158Z,9.10
2022-12-05T08:16:28.120Z,8.60
2022-12-05T08:18:56.738Z,8.10
2022-12-05T08:21:26.127Z,8.93
2022-12-05T08:23:54.216Z,8.27
2022-12-05T08:26:25.035Z,7.93
2022-12-05T08:28:55.564Z,8.40
2022-12-05T08:31:24.660Z,8.50
2022-12-05T08:33:57.335Z,8.33
2022-12-05T08:36:27.469Z,8.13
2022-12-05T08:38:57.336Z,9.27
2022-12-05T08:41:28.511Z,8.57
2022-12-05T08:43:58.578Z,8.00
2022-12-05T08:46:26.549Z,8.43
2022-12-05T08:48:54.376Z,8.10
2022-12-05T08:51:22.229Z,7.60
2022-12-05T08:53:50.025Z,8.50
2022-12-05T08:56:20.912Z,8.27
2022-12-05T08:58:55.656Z,7.87
2022-12-05T09:01:30.656Z,8.20
2022-12-05T09:04:00.409Z,7.90
2022-12-05T09:06:29.496Z,8.53
2022-12-05T09:08:59.164Z,8.83
2022-12-05T09:11:29.037Z,8.57
2022-12-05T09:13:58.541Z,8.13
2022-12-05T09:16:35.469Z,8.20
2022-12-05T09:19:08.048Z,8.57
2022-12-05T09:21:35.907Z,9.43
2022-12-05T09:24:03.875Z,7.67
2022-12-05T09:26:31.738Z,7.80
2022-12-05T09:28:59.773Z,8.17
2022-12-05T09:31:30.488Z,8.43
2022-12-05T09:33:58.469Z,9.13
2022-12-05T09:36:28.022Z,8.47
2022-12-05T09:38:56.475Z,8.50
2022-12-05T09:41:54.745Z,7.57
2022-12-05T09:44:26.768Z,8.83
2022-12-05T09:46:57.610Z,8.20
2022-12-05T09:49:26.201Z,8.50
2022-12-05T09:51:55.415Z,8.80
2022-12-05T09:54:24.081Z,9.03
2022-12-05T09:56:53.086Z,9.00
2022-12-05T09:59:21.672Z,8.93
2022-12-05T10:01:57.379Z,8.43
2022-12-05T10:04:52.379Z,9.23
2022-12-05T10:07:26.608Z,9.67
2022-12-05T10:10:01.157Z,9.57
2022-12-05T10:12:44.190Z,9.80
2022-12-05T10:15:16.145Z,9.90
2022-12-05T10:17:47.933Z,9.17
2022-12-05T10:20:18.712Z,9.50
2022-12-05T10:22:49.516Z,9.37
2022-12-05T10:25:20.232Z,9.03
2022-12-05T10:27:52.084Z,9.47
2022-12-05T10:30:21.655Z,9.20
2022-12-05T10:32:55.621Z,8.77
2022-12-05T10:35:25.235Z,9.13
2022-12-05T10:37:54.137Z,8.50
2022-12-05T10:40:22.485Z,9.10
2022-12-05T10:42:50.774Z,9.37
2022-12-05T10:45:20.856Z,9.43
2022-12-05T10:47:49.337Z,9.13
2022-12-05T10:50:30.584Z,9.37
2022-12-05T10:52:59.316Z,9.53
2022-12-05T10:55:30.945Z,8.80
2022-12-05T10:58:16.877Z,9.50
2022-12-05T11:00:47.709Z,10.07
2022-12-05T11:03:26.530Z,10.13
2022-12-05T11:05:58.575Z,9.13
2022-12-05T11:08:56.049Z,9.70
2022-12-05T11:11:20.090Z,9.67
2022-12-05T11:13:54.850Z,9.30
2022-12-05T11:16:25.593Z,9.27
2022-12-05T11:18:54.120Z,10.33
2022-12-05T11:21:24.103Z,9.50
2022-12-05T11:23:51.993Z,9.37
2022-12-05T11:26:34.506Z,9.87
2022-12-05T11:29:02.432Z,9.07
2022-12-05T11:31:32.314Z,9.27
2022-12-05T11:34:05.071Z,8.53
2022-12-05T11:36:40.884Z,9.50
2022-12-05T11:39:11.521Z,8.87
2022-12-05T11:41:57.024Z,9.23
2022-12-05T11:44:34.971Z,9.10
2022-12-05T11:47:14.488Z,8.30
2022-12-05T11:50:02.533Z,8.73
2022-12-05T11:52:40.599Z,9.17
2022-12-05T11:55:16.090Z,10.40
2022-12-05T11:58:14.425Z,9.83
2022-12-05T12:00:52.867Z,9.23
2022-12-05T12:03:53.383Z,10.90
2022-12-05T12:06:28.541Z,10.33
2022-12-05T12:09:13.996Z,10.70
2022-12-05T12:11:46.257Z,11.00
2022-12-05T12:14:21.594Z,11.97
2022-12-05T12:16:58.501Z,12.03
2022-12-05T12:19:36.600Z,12.80
2022-12-05T12:22:18.475Z,12.13
2022-12-05T12:25:00.311Z,12.17
2022-12-05T12:27:38.135Z,11.77
2022-12-05T12:30:15.074Z,11.20
2022-12-05T12:32:49.763Z,11.70
2022-12-05T12:35:29.996Z,12.07
2022-12-05T12:38:18.345Z,12.17
2022-12-05T12:40:50.895Z,12.13
2022-12-05T12:43:52.612Z,11.97
2022-12-05T12:46:21.466Z,11.90
2022-12-05T12:49:14.896Z,12.70
2022-12-05T12:51:48.947Z,12.87
2022-12-05T12:55:01.485Z,13.10
2022-12-05T12:57:26.003Z,15.63
2022-12-05T13:00:03.302Z,12.83
2022-12-05T13:02:37.158Z,13.03
2022-12-05T13:05:08.174Z,13.40
2022-12-05T13:07:38.874Z,12.70
2022-12-05T13:10:12.977Z,13.27
2022-12-05T13:12:43.735Z,13.47
2022-12-05T13:15:15.089Z,13.17
2022-12-05T13:17:45.399Z,15.13
2022-12-05T13:20:16.283Z,13.87
2022-12-05T13:22:44.797Z,14.30
2022-12-05T13:25:16.015Z,14.47
2022-12-05T13:27:56.572Z,14.20
2022-12-05T13:30:28.031Z,15.13
2022-12-05T13:32:58.563Z,16.20
2022-12-05T13:35:49.320Z,14.70
2022-12-05T13:38:41.557Z,14.20
2022-12-05T13:41:27.477Z,15.30
2022-12-05T13:44:06.402Z,14.93
2022-12-05T13:46:36.752Z,13.93
2022-12-05T13:49:08.862Z,14.03
2022-12-05T13:51:42.588Z,18.47
2022-12-05T13:54:14.417Z,22.97
2022-12-05T13:56:51.300Z,14.10
2022-12-05T13:59:56.780Z,14.17
2022-12-05T14:02:50.258Z,13.10
2022-12-05T14:05:43.890Z,14.53
2022-12-05T14:08:48.377Z,15.23
2022-12-05T14:11:16.232Z,14.47
2022-12-05T14:13:45.631Z,14.97
2022-12-05T14:16:46.691Z,14.80
2022-12-05T14:19:52.039Z,14.27
2022-12-05T14:23:04.691Z,13.00
2022-12-05T14:25:51.662Z,11.97
2022-12-05T14:28:37.999Z,11.10
2022-12-05T14:31:19.565Z,12.97
2022-12-05T14:33:47.660Z,11.20
2022-12-05T14:36:18.602Z,10.60
2022-12-05T14:38:46.474Z,13.43
2022-12-05T14:41:17.461Z,12.17
2022-12-05T14:43:45.526Z,12.27
2022-12-05T14:46:19.416Z,12.50
2022-12-05T14:48:48.461Z,11.20
2022-12-05T14:51:46.271Z,11.73
2022-12-05T14:54:16.805Z,11.47
2022-12-05T14:56:47.096Z,11.87
2022-12-05T14:59:24.132Z,11.93
2022-12-05T15:01:53.881Z,12.77
2022-12-05T15:04:25.783Z,12.63
2022-12-05T15:06:57.707Z,12.23
2022-12-05T15:09:45.557Z,12.43
2022-12-05T15:12:16.729Z,11.83
2022-12-05T15:14:48.975Z,11.93
2022-12-05T15:17:19.799Z,11.20
2022-12-05T15:19:53.498Z,12.97
2022-12-05T15:22:24.089Z,13.20
2022-12-05T15:24:51.877Z,14.00
2022-12-05T15:27:19.721Z,13.07
2022-12-05T15:29:47.489Z,11.97
2022-12-05T15:32:20.550Z,10.93
2022-12-05T15:34:52.118Z,12.07
2022-12-05T15:37:23.525Z,11.73
2022-12-05T15:39:55.772Z,12.20
2022-12-05T15:42:29.256Z,11.30
2022-12-05T15:45:16.037Z,11.37
2022-12-05T15:47:46.744Z,11.63
2022-12-05T15:50:15.218Z,11.20
2022-12-05T15:52:47.565Z,11.80
2022-12-05T15:55:18.220Z,10.57
2022-12-05T15:57:48.197Z,10.90
2022-12-05T16:00:18.176Z,10.53
2022-12-05T16:02:48.488Z,10.73
2022-12-05T16:05:22.290Z,11.13
2022-12-05T16:07:53.743Z,10.27
2022-12-05T16:10:29.107Z,11.00
2022-12-05T16:12:57.994Z,12.27
2022-12-05T16:15:27.951Z,12.27
2022-12-05T16:17:57.167Z,11.27
2022-12-05T16:20:29.761Z,10.90
2022-12-05T16:23:01.530Z,11.10
2022-12-05T16:25:30.531Z,12.57
2022-12-05T16:28:01.232Z,12.13
2022-12-05T16:30:29.953Z,12.67
2022-12-05T16:33:06.356Z,11.73
2022-12-05T16:35:36.869Z,12.83
2022-12-05T16:38:14.413Z,12.13
2022-12-05T16:40:53.066Z,10.47
2022-12-05T16:43:27.179Z,9.73
2022-12-05T16:45:58.502Z,10.07
2022-12-05T16:48:27.549Z,10.70
2022-12-05T16:51:17.314Z,10.53
2022-12-05T16:53:47.582Z,10.73
2022-12-05T16:56:17.359Z,10.90
2022-12-05T16:58:45.289Z,9.90
2022-12-05T17:01:17.637Z,10.67
2022-12-05T17:03:46.267Z,9.70
2022-12-05T17:06:14.750Z,10.33
2022-12-05T17:08:42.839Z,8.97
2022-12-05T17:11:16.068Z,9.60
2022-12-05T17:13:45.152Z,10.10
2022-12-05T17:16:13.079Z,9.87
2022-12-05T17:18:40.900Z,10.50
2022-12-05T17:21:15.283Z,9.67
2022-12-05T17:23:47.508Z,10.93
2022-12-05T17:26:19.775Z,8.37
2022-12-05T17:28:48.056Z,9.60
2022-12-05T17:31:17.405Z,9.20
2022-12-05T17:33:45.855Z,9.07
2022-12-05T17:36:14.019Z,8.23
2022-12-05T17:38:41.747Z,9.40
2022-12-05T17:41:11.474Z,9.37
2022-12-05T17:43:40.600Z,9.67
2022-12-05T17:46:08.927Z,9.10
2022-12-05T17:48:36.705Z,9.40
2022-12-05T17:51:10.069Z,9.57
2022-12-05T17:53:38.329Z,10.47
2022-12-05T17:56:06.596Z,10.03
2022-12-05T17:58:34.541Z,9.67
2022-12-05T18:01:03.743Z,8.50
2022-12-05T18:03:31.678Z,10.00
2022-12-05T18:05:59.653Z,10.60
2022-12-05T18:08:28.631Z,10.80
2022-12-05T18:10:57.288Z,12.60
2022-12-05T18:13:25.000Z,11.00
2022-12-05T18:15:57.823Z,10.73
2022-12-05T18:18:27.344Z,9.80
2022-12-05T18:21:04.796Z,8.63
2022-12-05T18:23:32.563Z,8.47
2022-12-05T18:26:00.787Z,8.63
2022-12-05T18:28:28.895Z,9.03
2022-12-05T18:31:07.993Z,8.33
2022-12-05T18:33:40.651Z,8.23
2022-12-05T18:36:10.207Z,8.50
2022-12-05T18:38:38.401Z,9.23
2022-12-05T18:41:07.694Z,9.03
2022-12-05T18:43:35.976Z,9.17
2022-12-05T18:46:04.938Z,9.27
2022-12-05T18:48:45.875Z,9.13
2022-12-05T18:51:17.744Z,9.40
2022-12-05T18:53:51.609Z,10.53
2022-12-05T18:56:22.816Z,10.37
2022-12-05T18:58:56.647Z,9.90
2022-12-05T19:01:25.017Z,10.03
2022-12-05T19:03:53.017Z,11.17
2022-12-05T19:06:24.015Z,10.23
2022-12-05T19:08:54.434Z,9.70
2022-12-05T19:11:22.770Z,9.40
2022-12-05T19:13:51.202Z,9.13
2022-12-05T19:16:18.993Z,9.20
2022-12-05T19:18:47.690Z,9.43
2022-12-05T19:21:15.557Z,8.80
2022-12-05T19:23:44.671Z,8.83
2022-12-05T19:26:12.452Z,9.73
2022-12-05T19:28:41.374Z,10.17
2022-12-05T19:31:10.071Z,8.70
2022-12-05T19:33:39.678Z,9.10
2022-12-05T19:36:10.050Z,8.17
2022-12-05T19:38:38.667Z,8.43
2022-12-05T19:41:09.259Z,8.77
2022-12-05T19:43:37.757Z,8.77
2022-12-05T19:46:06.380Z,8.13
2022-12-05T19:48:34.597Z,8.97
2022-12-05T19:51:03.191Z,8.90
2022-12-05T19:53:32.210Z,9.60
2022-12-05T19:56:03.110Z,8.73
2022-12-05T19:58:34.065Z,8.70
2022-12-05T20:01:08.555Z,9.63
2022-12-05T20:03:36.387Z,9.23
2022-12-05T20:06:04.723Z,8.60
2022-12-05T20:08:32.779Z,8.90
2022-12-05T20:11:05.164Z,9.23
2022-12-05T20:13:50.474Z,9.30
2022-12-05T20:16:21.253Z,8.60
2022-12-05T20:18:49.959Z,8.70
2022-12-05T20:21:19.812Z,8.90
2022-12-05T20:23:47.720Z,9.43
2022-12-05T20:26:16.818Z,9.03
2022-12-05T20:28:46.166Z,9.40
2022-12-05T20:31:15.980Z,8.40
2022-12-05T20:33:44.395Z,8.20
2022-12-05T20:36:13.681Z,9.80
2022-12-05T20:38:41.913Z,8.87
2022-12-05T20:41:12.044Z,8.90
2022-12-05T20:43:39.877Z,9.27
2022-12-05T20:46:11.720Z,10.00
2022-12-05T20:48:40.249Z,9.50
2022-12-05T20:51:09.797Z,9.70
2022-12-05T20:53:38.392Z,9.57
2022-12-05T20:56:07.042Z,9.03
2022-12-05T20:58:35.086Z,9.93
2022-12-05T21:01:04.934Z,9.77
2022-12-05T21:03:34.107Z,10.57
2022-12-05T21:06:07.920Z,9.73
2022-12-05T21:08:35.671Z,10.47
2022-12-05T21:11:03.514Z,10.97
2022-12-05T21:13:32.985Z,10.23
2022-12-05T21:16:02.993Z,9.67
2022-12-05T21:18:30.874Z,9.17
2022-12-05T21:21:01.515Z,9.73
2022-12-05T21:23:29.799Z,9.83
2022-12-05T21:26:02.202Z,9.10
2022-12-05T21:28:30.321Z,10.20
2022-12-05T21:31:05.731Z,10.13
2022-12-05T21:33:33.695Z,10.03
2022-12-05T21:36:02.854Z,11.60
2022-12-05T21:38:30.721Z,9.63
2022-12-05T21:40:58.547Z,10.33
2022-12-05T21:43:26.574Z,10.10
2022-12-05T21:45:55.429Z,11.07
2022-12-05T21:48:24.788Z,10.30
2022-12-05T21:50:52.975Z,11.10
2022-12-05T21:53:22.553Z,11.43
2022-12-05T21:55:59.842Z,10.03
2022-12-05T21:58:27.624Z,9.70
2022-12-05T22:00:55.581Z,9.77
2022-12-05T22:03:23.300Z,9.60
2022-12-05T22:05:51.126Z,9.20
2022-12-05T22:08:18.945Z,10.10
2022-12-05T22:10:48.064Z,10.30
2022-12-05T22:13:15.857Z,9.63
2022-12-05T22:15:43.658Z,8.63
2022-12-05T22:18:12.168Z,8.63
2022-12-05T22:20:39.973Z,8.07
2022-12-05T22:23:11.191Z,8.70
2022-12-05T22:25:41.559Z,8.30
2022-12-05T22:28:10.653Z,8.20
2022-12-05T22:30:38.455Z,8.70
2022-12-05T22:33:06.268Z,8.20
2022-12-05T22:35:35.930Z,7.90
2022-12-05T22:38:03.751Z,7.67
2022-12-05T22:40:31.519Z,9.67
2022-12-05T22:42:59.221Z,7.53
2022-12-05T22:45:28.353Z,7.90
2022-12-05T22:47:56.047Z,7.60
2022-12-05T22:50:23.879Z,8.07
2022-12-05T22:52:51.648Z,8.03
2022-12-05T22:55:19.412Z,7.67
2022-12-05T22:57:47.189Z,7.53
2022-12-05T23:00:15.764Z,9.00
2022-12-05T23:02:44.958Z,7.50
2022-12-05T23:05:12.875Z,8.60
2022-12-05T23:07:40.751Z,8.03
2022-12-05T23:10:09.482Z,8.60
2022-12-05T23:12:37.635Z,8.20
2022-12-05T23:15:06.057Z,7.77
2022-12-05T23:17:33.843Z,7.60
2022-12-05T23:20:03.298Z,8.17
2022-12-05T23:22:31.037Z,7.70
2022-12-05T23:24:58.849Z,8.00
2022-12-05T23:27:26.591Z,7.57
2022-12-05T23:29:54.404Z,8.43
2022-12-05T23:32:22.133Z,8.10
2022-12-05T23:34:49.944Z,7.73
2022-12-05T23:37:19.123Z,7.87
2022-12-05T23:39:46.884Z,7.10
2022-12-05T23:42:17.225Z,7.27
2022-12-05T23:44:45.136Z,8.23
2022-12-05T23:47:13.009Z,8.10
2022-12-05T23:49:40.808Z,8.17
2022-12-05T23:52:08.562Z,7.73
2022-12-05T23:54:37.849Z,7.47
2022-12-05T23:57:05.671Z,7.60
2022-12-05T23:59:33.429Z,7.83
